Kezdőlap
METAR-TAF:

METAR-TAF

Repülőterek :

Poteau, Oklahoma, Amerikai Egyesült Államok

földrajzi szélesség: 35-01-18N, földrajzi hosszúság: 094-37-17W, magasság: 138 m

Jelenlegi meteorológiai megfigyelések

A jelentés 26 perccel ezelõtt készült, 01:35 UTC
Délkeleti szél 4 kt
Hőmérséklet 30°C
Páratartalom 59%
Légköri nyomás 1018 hPa
Látótávolság: 16.1 km
Szakadozott felhőzet 7000 lábon

METAR: KRKR 220135Z AUTO 14004KT 10SM BKN070 30/21 A3006 RMK AO2

Idő: 21:01 (02:01 UTC)


TAF: hiányzik

Meteorológiai megfigyelések és előrejelzések több, mint 4000 repülőtéren (METAR és TAF jelentéseket).

A térképen piros és sárga pontok jelzik az elérhető meteorológiai állomásokat.

Mozgassa az egeret a pont fölött, hogy megjelenjen az állomás neve.

Azután kattintson az időjárási megfigyelések és előrejelzések megtekintéséhez.

A térkép megváltoztatása: kattintson a fekete keresztel jelölt zöld gombra ráközelítéshez, a vonallal jelölt zöld gombra távolításhoz, vagy a zöld nyilakra a szomszédos térképek eléréséhez.


METAR-TAF: